Allentown, PA

3:57 PM EDT on April 30, 2017 (GMT -0400)
Allentown

Weather History for KXLL - September, 2012

Change the Weather History Date:

Saturday, September 29, 2012

  Actual Average (KABE) Record (KABE)
Temperature  
Mean Temperature 58 °F -  
Max Temperature 62 °F 68 °F 86 °F (1945)
Min Temperature 53 °F 47 °F 32 °F (2000)
Degree Days  
Heating Degree Days 8    
Growing Degree Days 8 (Base 50)    
Moisture  
Dew Point 48 °F    
Average Humidity 70    
Maximum Humidity 88    
Minimum Humidity 48    
Precipitation  
Precipitation 0.00 in - - ()
Sea Level Pressure  
Sea Level Pressure 29.95 in    
Wind  
Wind Speed 3 mph (NW)    
Max Wind Speed 9 mph    
Max Gust Speed -    
Visibility 10 miles    
Events      
Averages and records for this station are not official NWS values.
T = Trace of Precipitation, MM = Missing Value Source: NWS Daily Summary

Daily Weather History Graph

Daily Weather History Graph

Search for Another Location

Airport or City:

Trip Planner

Search our weather history database for the weather conditions in past years. The results will help you decide how hot, cold, wet, or windy it might be!

Date:

Astronomy

Sep. 29, 2012 Rise Set
Actual Time 6:56 AM EDT 6:46 PM EDT
Civil Twilight 6:29 AM EDT 7:13 PM EDT
Nautical Twilight 5:57 AM EDT 7:45 PM EDT
Astronomical Twilight 5:25 AM EDT 8:17 PM EDT
Moon 6:17 PM EDT (9/29) 6:25 AM EDT (9/29)
Length of Visible Light 12h 44m
Length of Day
11h 49m
Full, 100% of the Moon is Illuminated
Sep 29
Full
Sep 29
Full
Oct 8
Last Quarter
Oct 15
New
Oct 21
First Quarter

Hourly Weather History & Observations

Time (EDT) Temp. Dew Point Humidity Pressure Visibility Wind Dir Wind Speed Gust Speed Precip Events Conditions
12:15 AM 60.8 °F 53.6 °F 77% 29.97 in 10.0 mi Calm Calm - N/A   Overcast
12:35 AM 60.8 °F 53.6 °F 77% 29.96 in 10.0 mi Calm Calm - N/A   Overcast
12:55 AM 60.8 °F 53.6 °F 77% 29.96 in 10.0 mi West 3.5 mph - N/A   Overcast
1:15 AM 60.8 °F 53.6 °F 77% 29.96 in 10.0 mi West 3.5 mph - N/A   Overcast
1:35 AM 60.8 °F 53.6 °F 77% 29.96 in 10.0 mi Calm Calm - N/A   Overcast
1:55 AM 59.0 °F 53.6 °F 82% 29.96 in 10.0 mi WNW 3.5 mph - N/A   Overcast
2:15 AM 59.0 °F 53.6 °F 82% 29.97 in 10.0 mi WNW 4.6 mph - N/A   Overcast
2:35 AM 59.0 °F 51.8 °F 77% 29.96 in 10.0 mi NW 5.8 mph - N/A   Overcast
2:55 AM 57.2 °F 51.8 °F 82% 29.97 in 10.0 mi NW 4.6 mph - N/A   Overcast
3:15 AM 57.2 °F 51.8 °F 82% 29.97 in 10.0 mi WNW 3.5 mph - N/A   Overcast
3:35 AM 55.4 °F 51.8 °F 88% 29.96 in 10.0 mi Calm Calm - N/A   Overcast
3:55 AM 55.4 °F 50.0 °F 82% 29.96 in 10.0 mi WNW 4.6 mph - N/A   Mostly Cloudy
4:15 AM 55.4 °F 50.0 °F 82% 29.96 in 10.0 mi NW 4.6 mph - N/A   Overcast
4:35 AM 53.6 °F 50.0 °F 88% 29.97 in 10.0 mi NW 3.5 mph - N/A   Overcast
4:55 AM 53.6 °F 50.0 °F 88% 29.97 in 10.0 mi WNW 3.5 mph - N/A   Overcast
5:15 AM 53.6 °F 50.0 °F 88% 29.98 in 10.0 mi WNW 3.5 mph - N/A   Overcast
5:35 AM 53.6 °F 48.2 °F 82% 29.97 in 10.0 mi NW 3.5 mph - N/A   Overcast
5:55 AM 53.6 °F 48.2 °F 82% 29.97 in 10.0 mi Calm Calm - N/A   Overcast
6:15 AM 53.6 °F 48.2 °F 82% 29.97 in 10.0 mi NW 4.6 mph - N/A   Mostly Cloudy
6:35 AM 53.6 °F 48.2 °F 82% 29.96 in 10.0 mi Calm Calm - N/A   Overcast
6:55 AM 53.6 °F 48.2 °F 82% 29.96 in 10.0 mi Calm Calm - N/A   Overcast
7:15 AM 53.6 °F 50.0 °F 88% 29.97 in 10.0 mi Calm Calm - N/A   Overcast
7:35 AM 53.6 °F 48.2 °F 82% 29.98 in 10.0 mi Calm Calm - N/A   Overcast
7:55 AM 55.4 °F 48.2 °F 77% 29.98 in 10.0 mi NW 3.5 mph - N/A   Overcast
8:15 AM 55.4 °F 50.0 °F 82% 29.98 in 10.0 mi NW 4.6 mph - N/A   Overcast
8:35 AM 55.4 °F 46.4 °F 72% 29.99 in 10.0 mi NNW 8.1 mph - N/A   Overcast
8:55 AM 55.4 °F 46.4 °F 72% 29.99 in 10.0 mi NNW 6.9 mph - N/A   Overcast
9:15 AM 55.4 °F 46.4 °F 72% 29.99 in 10.0 mi NW 4.6 mph - N/A   Overcast
9:35 AM 55.4 °F 48.2 °F 77% 29.99 in 10.0 mi NNW 4.6 mph - N/A   Overcast
9:55 AM 55.4 °F 48.2 °F 77% 29.98 in 10.0 mi NNW 8.1 mph - N/A   Overcast
10:15 AM 55.4 °F 48.2 °F 77% 29.99 in 10.0 mi North 8.1 mph - N/A   Overcast
10:35 AM 55.4 °F 48.2 °F 77% 29.99 in 10.0 mi NW 5.8 mph - N/A   Overcast
10:55 AM 57.2 °F 48.2 °F 72% 29.98 in 10.0 mi NNW 4.6 mph - N/A   Overcast
11:15 AM 57.2 °F 48.2 °F 72% 29.99 in 10.0 mi NNW 6.9 mph - N/A   Overcast
11:35 AM 57.2 °F 50.0 °F 77% 29.99 in 10.0 mi NNW 6.9 mph - N/A   Overcast
11:55 AM 59.0 °F 48.2 °F 67% 29.98 in 10.0 mi North 4.6 mph - N/A   Overcast
12:15 PM 59.0 °F 50.0 °F 72% 29.97 in 10.0 mi NNW 6.9 mph - N/A   Overcast
12:35 PM 59.0 °F 50.0 °F 72% 29.97 in 10.0 mi NNW 6.9 mph - N/A   Overcast
12:55 PM 59.0 °F 48.2 °F 67% 29.96 in 10.0 mi Calm Calm - N/A   Overcast
1:15 PM 59.0 °F 48.2 °F 67% 29.96 in 10.0 mi NW 5.8 mph - N/A   Overcast
1:35 PM 60.8 °F 48.2 °F 63% 29.95 in 10.0 mi NW 8.1 mph - N/A   Overcast
1:55 PM 60.8 °F 46.4 °F 59% 29.94 in 10.0 mi NNW 8.1 mph - N/A   Overcast
2:15 PM 62.6 °F 46.4 °F 55% 29.93 in 10.0 mi NNW 6.9 mph - N/A   Overcast
2:35 PM 60.8 °F 46.4 °F 59% 29.93 in 10.0 mi North 9.2 mph - N/A   Overcast
2:55 PM 60.8 °F 46.4 °F 59% 29.93 in 10.0 mi NNW 4.6 mph - N/A   Overcast
3:15 PM 62.6 °F 44.6 °F 52% 29.92 in 10.0 mi NNW 6.9 mph - N/A   Overcast
3:35 PM 62.6 °F 44.6 °F 52% 29.91 in 10.0 mi North 6.9 mph - N/A   Overcast
3:55 PM 62.6 °F 42.8 °F 48% 29.91 in 10.0 mi North 9.2 mph - N/A   Overcast
4:15 PM 62.6 °F 42.8 °F 48% 29.90 in 10.0 mi NNW 3.5 mph - N/A   Overcast
4:35 PM 62.6 °F 46.4 °F 55% 29.91 in 10.0 mi NNW 6.9 mph - N/A   Overcast
4:55 PM 62.6 °F 44.6 °F 52% 29.91 in 10.0 mi NNW 5.8 mph - N/A   Overcast
5:15 PM 62.6 °F 44.6 °F 52% 29.91 in 10.0 mi North 3.5 mph - N/A   Overcast
5:35 PM 60.8 °F 46.4 °F 59% 29.91 in 10.0 mi North 3.5 mph - N/A   Overcast
5:55 PM 60.8 °F 46.4 °F 59% 29.91 in 10.0 mi Calm Calm - N/A   Overcast
6:15 PM 60.8 °F 44.6 °F 55% 29.91 in 10.0 mi NW 3.5 mph - N/A   Overcast
6:35 PM 60.8 °F 46.4 °F 59% 29.91 in 10.0 mi NW 3.5 mph - N/A   Overcast
6:55 PM 60.8 °F 44.6 °F 55% 29.92 in 10.0 mi NNW 4.6 mph - N/A   Overcast
7:15 PM 60.8 °F 44.6 °F 55% 29.93 in 10.0 mi Calm Calm - N/A   Overcast
7:35 PM 60.8 °F 46.4 °F 59% 29.93 in 10.0 mi Calm Calm - N/A   Overcast
7:55 PM 59.0 °F 46.4 °F 63% 29.93 in 10.0 mi WNW 3.5 mph - N/A   Overcast
8:15 PM 59.0 °F 46.4 °F 63% 29.93 in 10.0 mi Calm Calm - N/A   Overcast
8:35 PM 59.0 °F 46.4 °F 63% 29.93 in 10.0 mi NW 4.6 mph - N/A   Overcast
8:55 PM 59.0 °F 44.6 °F 59% 29.93 in 10.0 mi WNW 3.5 mph - N/A   Overcast
9:15 PM 59.0 °F 44.6 °F 59% 29.92 in 10.0 mi NW 4.6 mph - N/A   Overcast
9:35 PM 59.0 °F 44.6 °F 59% 29.93 in 10.0 mi NW 3.5 mph - N/A   Overcast
9:55 PM 59.0 °F 44.6 °F 59% 29.93 in 10.0 mi Calm Calm - N/A   Overcast
10:15 PM 57.2 °F 46.4 °F 67% 29.93 in 10.0 mi Calm Calm - N/A   Overcast
10:35 PM 57.2 °F 46.4 °F 67% 29.93 in 10.0 mi Calm Calm - N/A   Overcast
10:55 PM 57.2 °F 46.4 °F 67% 29.93 in 10.0 mi Calm Calm - N/A   Overcast
11:15 PM 55.4 °F 46.4 °F 72% 29.93 in 10.0 mi Calm Calm - N/A   Overcast
11:35 PM 55.4 °F 46.4 °F 72% 29.93 in 10.0 mi Calm Calm - N/A   Overcast
11:55 PM 55.4 °F 48.2 °F 77% 29.92 in 10.0 mi Calm Calm - N/A   Overcast